sensor_id;sensor_type;location;lat;lon;timestamp;temperature;humidity
8591;DHT22;4333;48.322;14.340;2023-03-01T00:02:21;-0.30;53.30
8591;DHT22;4333;48.322;14.340;2023-03-01T00:04:47;-0.30;54.10
8591;DHT22;4333;48.322;14.340;2023-03-01T00:07:15;-0.30;54.40
8591;DHT22;4333;48.322;14.340;2023-03-01T00:09:41;-0.30;54.00
8591;DHT22;4333;48.322;14.340;2023-03-01T00:12:07;-0.30;53.30
8591;DHT22;4333;48.322;14.340;2023-03-01T00:14:35;-0.30;52.70
8591;DHT22;4333;48.322;14.340;2023-03-01T00:17:01;-0.20;51.90
8591;DHT22;4333;48.322;14.340;2023-03-01T00:19:27;-0.30;51.90
8591;DHT22;4333;48.322;14.340;2023-03-01T00:21:52;-0.30;52.60
8591;DHT22;4333;48.322;14.340;2023-03-01T00:24:18;-0.30;53.20
8591;DHT22;4333;48.322;14.340;2023-03-01T00:26:44;-0.30;53.70
8591;DHT22;4333;48.322;14.340;2023-03-01T00:29:10;-0.40;53.30
8591;DHT22;4333;48.322;14.340;2023-03-01T00:31:35;-0.50;53.80
8591;DHT22;4333;48.322;14.340;2023-03-01T00:34:03;-0.60;54.80
8591;DHT22;4333;48.322;14.340;2023-03-01T00:36:31;-0.60;55.70
8591;DHT22;4333;48.322;14.340;2023-03-01T00:42:20;-0.60;55.80
8591;DHT22;4333;48.322;14.340;2023-03-01T00:44:47;-0.60;56.20
8591;DHT22;4333;48.322;14.340;2023-03-01T00:47:13;-0.60;56.90
8591;DHT22;4333;48.322;14.340;2023-03-01T00:49:39;-0.70;57.60
8591;DHT22;4333;48.322;14.340;2023-03-01T00:52:05;-0.60;56.80
8591;DHT22;4333;48.322;14.340;2023-03-01T00:54:33;-0.50;54.60
8591;DHT22;4333;48.322;14.340;2023-03-01T00:56:59;-0.50;54.80
8591;DHT22;4333;48.322;14.340;2023-03-01T00:59:27;-0.50;53.90
8591;DHT22;4333;48.322;14.340;2023-03-01T01:01:53;-0.60;54.70
8591;DHT22;4333;48.322;14.340;2023-03-01T01:04:18;-0.60;55.50
8591;DHT22;4333;48.322;14.340;2023-03-01T01:06:47;-0.70;55.70
8591;DHT22;4333;48.322;14.340;2023-03-01T01:09:17;-0.70;56.20
8591;DHT22;4333;48.322;14.340;2023-03-01T01:11:45;-0.80;56.40
8591;DHT22;4333;48.322;14.340;2023-03-01T01:14:11;-0.80;56.70
8591;DHT22;4333;48.322;14.340;2023-03-01T01:16:36;-0.70;56.20
8591;DHT22;4333;48.322;14.340;2023-03-01T01:19:03;-0.80;56.10
8591;DHT22;4333;48.322;14.340;2023-03-01T01:21:28;-0.80;56.00
8591;DHT22;4333;48.322;14.340;2023-03-01T01:23:54;-0.80;56.10
8591;DHT22;4333;48.322;14.340;2023-03-01T01:26:23;-0.80;55.70
8591;DHT22;4333;48.322;14.340;2023-03-01T01:28:49;-0.80;56.30
8591;DHT22;4333;48.322;14.340;2023-03-01T01:31:15;-0.80;54.80
8591;DHT22;4333;48.322;14.340;2023-03-01T01:33:44;-0.70;54.60
8591;DHT22;4333;48.322;14.340;2023-03-01T01:36:10;-0.70;53.50
8591;DHT22;4333;48.322;14.340;2023-03-01T01:38:37;-0.70;53.60
8591;DHT22;4333;48.322;14.340;2023-03-01T01:41:04;-0.80;53.70
8591;DHT22;4333;48.322;14.340;2023-03-01T01:43:35;-0.80;53.20
8591;DHT22;4333;48.322;14.340;2023-03-01T01:46:10;-0.80;53.70
8591;DHT22;4333;48.322;14.340;2023-03-01T01:48:46;-0.60;51.10
8591;DHT22;4333;48.322;14.340;2023-03-01T01:51:18;-0.60;50.50
8591;DHT22;4333;48.322;14.340;2023-03-01T01:53:46;-0.60;49.90
8591;DHT22;4333;48.322;14.340;2023-03-01T01:56:17;-0.60;50.90
8591;DHT22;4333;48.322;14.340;2023-03-01T01:58:44;-0.60;49.60
8591;DHT22;4333;48.322;14.340;2023-03-01T02:01:13;-0.60;49.60
8591;DHT22;4333;48.322;14.340;2023-03-01T02:03:40;-0.60;49.30
8591;DHT22;4333;48.322;14.340;2023-03-01T02:06:29;-0.60;49.40
8591;DHT22;4333;48.322;14.340;2023-03-01T02:09:04;-0.70;50.00
8591;DHT22;4333;48.322;14.340;2023-03-01T02:11:32;-0.70;50.00
8591;DHT22;4333;48.322;14.340;2023-03-01T02:13:58;-0.70;50.30
8591;DHT22;4333;48.322;14.340;2023-03-01T02:16:23;-0.70;49.90
8591;DHT22;4333;48.322;14.340;2023-03-01T02:18:50;-0.70;49.30
8591;DHT22;4333;48.322;14.340;2023-03-01T02:23:54;-0.60;48.40
8591;DHT22;4333;48.322;14.340;2023-03-01T02:29:04;-0.70;48.90
8591;DHT22;4333;48.322;14.340;2023-03-01T02:31:31;-0.70;49.30
8591;DHT22;4333;48.322;14.340;2023-03-01T02:34:13;-0.70;48.80
8591;DHT22;4333;48.322;14.340;2023-03-01T02:36:43;-0.60;47.80
8591;DHT22;4333;48.322;14.340;2023-03-01T02:39:17;-0.60;47.80
8591;DHT22;4333;48.322;14.340;2023-03-01T02:41:46;-0.50;47.70
8591;DHT22;4333;48.322;14.340;2023-03-01T02:44:15;-0.50;46.50
8591;DHT22;4333;48.322;14.340;2023-03-01T02:46:47;-0.50;45.90
8591;DHT22;4333;48.322;14.340;2023-03-01T02:51:48;-0.40;44.90
8591;DHT22;4333;48.322;14.340;2023-03-01T02:54:39;-0.40;45.50
8591;DHT22;4333;48.322;14.340;2023-03-01T02:57:07;-0.40;45.00
8591;DHT22;4333;48.322;14.340;2023-03-01T02:59:37;-0.50;46.40
8591;DHT22;4333;48.322;14.340;2023-03-01T03:02:19;-0.60;46.80
8591;DHT22;4333;48.322;14.340;2023-03-01T03:04:46;-0.40;45.00
8591;DHT22;4333;48.322;14.340;2023-03-01T03:07:12;-0.40;43.80
8591;DHT22;4333;48.322;14.340;2023-03-01T03:09:38;-0.30;42.40
8591;DHT22;4333;48.322;14.340;2023-03-01T03:12:06;-0.20;41.30
8591;DHT22;4333;48.322;14.340;2023-03-01T03:14:32;-0.10;41.10
8591;DHT22;4333;48.322;14.340;2023-03-01T03:17:00;-0.10;39.00
8591;DHT22;4333;48.322;14.340;2023-03-01T03:19:31;0.10;37.40
8591;DHT22;4333;48.322;14.340;2023-03-01T03:21:57;0.10;36.70
8591;DHT22;4333;48.322;14.340;2023-03-01T03:24:24;0.20;35.30
8591;DHT22;4333;48.322;14.340;2023-03-01T03:26:50;0.10;35.70
8591;DHT22;4333;48.322;14.340;2023-03-01T03:29:16;0.10;34.90
8591;DHT22;4333;48.322;14.340;2023-03-01T03:31:41;0.10;34.90
8591;DHT22;4333;48.322;14.340;2023-03-01T03:34:07;0.10;34.90
8591;DHT22;4333;48.322;14.340;2023-03-01T03:36:32;0.10;34.40
8591;DHT22;4333;48.322;14.340;2023-03-01T03:38:58;0.20;34.30
8591;DHT22;4333;48.322;14.340;2023-03-01T03:41:24;0.00;35.40
8591;DHT22;4333;48.322;14.340;2023-03-01T03:43:50;0.10;35.40
8591;DHT22;4333;48.322;14.340;2023-03-01T03:46:15;0.00;35.50
8591;DHT22;4333;48.322;14.340;2023-03-01T03:48:45;0.00;35.30
8591;DHT22;4333;48.322;14.340;2023-03-01T03:51:13;0.00;36.20
8591;DHT22;4333;48.322;14.340;2023-03-01T03:53:41;-0.10;38.00
8591;DHT22;4333;48.322;14.340;2023-03-01T03:56:09;-0.10;36.50
8591;DHT22;4333;48.322;14.340;2023-03-01T03:58:35;0.10;34.40
8591;DHT22;4333;48.322;14.340;2023-03-01T04:01:01;0.10;34.30
8591;DHT22;4333;48.322;14.340;2023-03-01T04:03:28;0.20;34.20
8591;DHT22;4333;48.322;14.340;2023-03-01T04:06:00;0.00;34.60
8591;DHT22;4333;48.322;14.340;2023-03-01T04:08:27;0.00;35.40
8591;DHT22;4333;48.322;14.340;2023-03-01T04:10:57;0.00;35.80
8591;DHT22;4333;48.322;14.340;2023-03-01T04:13:24;-0.10;36.10
8591;DHT22;4333;48.322;14.340;2023-03-01T04:15:54;-0.20;36.10
8591;DHT22;4333;48.322;14.340;2023-03-01T04:18:22;-0.20;37.30
8591;DHT22;4333;48.322;14.340;2023-03-01T04:20:48;-0.30;37.50
8591;DHT22;4333;48.322;14.340;2023-03-01T04:23:19;-0.20;37.50
8591;DHT22;4333;48.322;14.340;2023-03-01T04:25:54;-0.10;36.80
8591;DHT22;4333;48.322;14.340;2023-03-01T04:28:22;-0.10;35.50
8591;DHT22;4333;48.322;14.340;2023-03-01T04:30:51;0.00;34.70
8591;DHT22;4333;48.322;14.340;2023-03-01T04:33:17;0.10;33.80
8591;DHT22;4333;48.322;14.340;2023-03-01T04:35:45;0.00;33.90
8591;DHT22;4333;48.322;14.340;2023-03-01T04:38:10;0.00;32.90
8591;DHT22;4333;48.322;14.340;2023-03-01T04:40:36;0.00;33.30
8591;DHT22;4333;48.322;14.340;2023-03-01T04:43:03;0.00;33.70
8591;DHT22;4333;48.322;14.340;2023-03-01T04:45:29;-0.10;35.30
8591;DHT22;4333;48.322;14.340;2023-03-01T04:47:55;-0.10;35.10
8591;DHT22;4333;48.322;14.340;2023-03-01T04:50:24;-0.20;35.70
8591;DHT22;4333;48.322;14.340;2023-03-01T04:52:51;-0.30;36.40
8591;DHT22;4333;48.322;14.340;2023-03-01T04:55:17;-0.30;36.90
8591;DHT22;4333;48.322;14.340;2023-03-01T04:57:43;-0.40;38.90
8591;DHT22;4333;48.322;14.340;2023-03-01T05:00:11;-0.40;38.90
8591;DHT22;4333;48.322;14.340;2023-03-01T05:02:51;-0.50;39.50
8591;DHT22;4333;48.322;14.340;2023-03-01T05:05:23;-0.50;40.80
8591;DHT22;4333;48.322;14.340;2023-03-01T05:07:52;-0.60;41.40
8591;DHT22;4333;48.322;14.340;2023-03-01T05:10:21;-0.60;42.70
8591;DHT22;4333;48.322;14.340;2023-03-01T05:12:47;-0.70;42.90
8591;DHT22;4333;48.322;14.340;2023-03-01T05:15:13;-0.70;43.30
8591;DHT22;4333;48.322;14.340;2023-03-01T05:17:39;-0.60;43.50
8591;DHT22;4333;48.322;14.340;2023-03-01T05:20:05;-0.50;41.10
8591;DHT22;4333;48.322;14.340;2023-03-01T05:22:34;-0.40;39.60
8591;DHT22;4333;48.322;14.340;2023-03-01T05:25:01;-0.40;39.00
8591;DHT22;4333;48.322;14.340;2023-03-01T05:27:27;-0.40;39.60
8591;DHT22;4333;48.322;14.340;2023-03-01T05:29:52;-0.40;40.00
8591;DHT22;4333;48.322;14.340;2023-03-01T05:32:18;-0.50;40.60
8591;DHT22;4333;48.322;14.340;2023-03-01T05:34:44;-0.50;41.20
8591;DHT22;4333;48.322;14.340;2023-03-01T05:37:14;-0.30;39.00
8591;DHT22;4333;48.322;14.340;2023-03-01T05:39:40;-0.30;39.00
8591;DHT22;4333;48.322;14.340;2023-03-01T05:42:12;-0.40;39.90
8591;DHT22;4333;48.322;14.340;2023-03-01T05:44:38;-0.50;41.10
8591;DHT22;4333;48.322;14.340;2023-03-01T05:47:04;-0.60;42.70
8591;DHT22;4333;48.322;14.340;2023-03-01T05:49:29;-0.70;43.80
8591;DHT22;4333;48.322;14.340;2023-03-01T05:51:59;-0.70;45.10
8591;DHT22;4333;48.322;14.340;2023-03-01T05:54:27;-0.90;45.10
8591;DHT22;4333;48.322;14.340;2023-03-01T05:56:53;-0.80;46.10
8591;DHT22;4333;48.322;14.340;2023-03-01T05:59:18;-0.90;47.30
8591;DHT22;4333;48.322;14.340;2023-03-01T06:01:44;-1.00;49.50
8591;DHT22;4333;48.322;14.340;2023-03-01T06:04:10;-0.90;48.80
8591;DHT22;4333;48.322;14.340;2023-03-01T06:06:36;-0.80;47.90
8591;DHT22;4333;48.322;14.340;2023-03-01T06:09:06;-0.80;47.50
8591;DHT22;4333;48.322;14.340;2023-03-01T06:11:36;-0.70;46.20
8591;DHT22;4333;48.322;14.340;2023-03-01T06:14:03;-0.70;46.20
8591;DHT22;4333;48.322;14.340;2023-03-01T06:16:29;-0.70;46.20
8591;DHT22;4333;48.322;14.340;2023-03-01T06:18:54;-0.70;45.50
8591;DHT22;4333;48.322;14.340;2023-03-01T06:21:20;-0.60;44.90
8591;DHT22;4333;48.322;14.340;2023-03-01T06:23:46;-0.60;44.60
8591;DHT22;4333;48.322;14.340;2023-03-01T06:26:11;-0.50;43.50
8591;DHT22;4333;48.322;14.340;2023-03-01T06:28:37;-0.50;43.40
8591;DHT22;4333;48.322;14.340;2023-03-01T06:31:03;-0.40;42.40
8591;DHT22;4333;48.322;14.340;2023-03-01T06:33:29;-0.30;42.40
8591;DHT22;4333;48.322;14.340;2023-03-01T06:35:57;-0.30;42.40
8591;DHT22;4333;48.322;14.340;2023-03-01T06:38:24;-0.20;40.10
8591;DHT22;4333;48.322;14.340;2023-03-01T06:40:54;-0.10;40.10
8591;DHT22;4333;48.322;14.340;2023-03-01T06:43:20;-0.10;39.60
8591;DHT22;4333;48.322;14.340;2023-03-01T06:45:46;0.00;38.60
8591;DHT22;4333;48.322;14.340;2023-03-01T06:48:12;0.10;37.60
8591;DHT22;4333;48.322;14.340;2023-03-01T06:50:37;0.20;37.10
8591;DHT22;4333;48.322;14.340;2023-03-01T06:53:06;0.20;36.90
8591;DHT22;4333;48.322;14.340;2023-03-01T06:55:32;0.20;36.60
8591;DHT22;4333;48.322;14.340;2023-03-01T06:57:59;0.20;36.50
8591;DHT22;4333;48.322;14.340;2023-03-01T07:00:26;0.30;36.50
8591;DHT22;4333;48.322;14.340;2023-03-01T07:02:52;0.40;35.30
8591;DHT22;4333;48.322;14.340;2023-03-01T07:05:18;0.50;34.10
8591;DHT22;4333;48.322;14.340;2023-03-01T07:07:44;0.50;32.80
8591;DHT22;4333;48.322;14.340;2023-03-01T07:10:10;0.70;31.30
8591;DHT22;4333;48.322;14.340;2023-03-01T07:12:36;0.80;30.00
8591;DHT22;4333;48.322;14.340;2023-03-01T07:15:02;0.80;29.70
8591;DHT22;4333;48.322;14.340;2023-03-01T07:17:31;1.00;28.10
8591;DHT22;4333;48.322;14.340;2023-03-01T07:19:56;1.80;29.10
8591;DHT22;4333;48.322;14.340;2023-03-01T07:22:22;3.20;19.20
8591;DHT22;4333;48.322;14.340;2023-03-01T07:24:48;4.50;9.90
8591;DHT22;4333;48.322;14.340;2023-03-01T07:27:13;5.40;2.60
8591;DHT22;4333;48.322;14.340;2023-03-01T07:29:39;6.30;1.00
8591;DHT22;4333;48.322;14.340;2023-03-01T07:32:05;7.10;1.00
8591;DHT22;4333;48.322;14.340;2023-03-01T07:34:31;7.00;1.00
8591;DHT22;4333;48.322;14.340;2023-03-01T07:37:00;7.30;1.00
8591;DHT22;4333;48.322;14.340;2023-03-01T07:39:25;7.30;1.00
8591;DHT22;4333;48.322;14.340;2023-03-01T07:41:51;7.40;1.00
8591;DHT22;4333;48.322;14.340;2023-03-01T07:44:17;7.60;1.00
8591;DHT22;4333;48.322;14.340;2023-03-01T07:46:44;8.10;1.00
8591;DHT22;4333;48.322;14.340;2023-03-01T07:49:10;7.70;1.00
8591;DHT22;4333;48.322;14.340;2023-03-01T07:51:36;7.80;1.00
8591;DHT22;4333;48.322;14.340;2023-03-01T07:54:02;8.10;1.00
8591;DHT22;4333;48.322;14.340;2023-03-01T07:56:27;8.10;1.00
8591;DHT22;4333;48.322;14.340;2023-03-01T07:58:54;8.30;1.00
8591;DHT22;4333;48.322;14.340;2023-03-01T08:01:22;8.70;1.00
8591;DHT22;4333;48.322;14.340;2023-03-01T08:03:48;9.30;1.00
8591;DHT22;4333;48.322;14.340;2023-03-01T08:06:15;10.20;1.00
8591;DHT22;4333;48.322;14.340;2023-03-01T08:08:41;9.30;1.00
8591;DHT22;4333;48.322;14.340;2023-03-01T08:11:11;9.00;1.00
8591;DHT22;4333;48.322;14.340;2023-03-01T08:13:39;8.10;1.00
8591;DHT22;4333;48.322;14.340;2023-03-01T08:16:11;8.20;1.00
8591;DHT22;4333;48.322;14.340;2023-03-01T08:18:37;8.60;1.00
8591;DHT22;4333;48.322;14.340;2023-03-01T08:21:11;8.60;1.00
8591;DHT22;4333;48.322;14.340;2023-03-01T08:23:37;8.50;1.00
8591;DHT22;4333;48.322;14.340;2023-03-01T08:28:31;9.10;1.00
8591;DHT22;4333;48.322;14.340;2023-03-01T08:30:57;9.10;1.00
8591;DHT22;4333;48.322;14.340;2023-03-01T08:33:23;8.90;1.00
8591;DHT22;4333;48.322;14.340;2023-03-01T08:35:49;8.00;1.00
8591;DHT22;4333;48.322;14.340;2023-03-01T08:38:15;7.90;1.00
8591;DHT22;4333;48.322;14.340;2023-03-01T08:40:43;8.50;1.00
8591;DHT22;4333;48.322;14.340;2023-03-01T08:43:08;8.70;1.00
8591;DHT22;4333;48.322;14.340;2023-03-01T08:45:34;8.90;1.00
8591;DHT22;4333;48.322;14.340;2023-03-01T08:48:00;9.00;1.00
8591;DHT22;4333;48.322;14.340;2023-03-01T08:50:26;9.20;1.00
8591;DHT22;4333;48.322;14.340;2023-03-01T08:52:54;9.80;1.00
8591;DHT22;4333;48.322;14.340;2023-03-01T08:55:19;9.40;1.00
8591;DHT22;4333;48.322;14.340;2023-03-01T08:57:45;9.10;1.00
8591;DHT22;4333;48.322;14.340;2023-03-01T09:00:11;9.60;1.00
8591;DHT22;4333;48.322;14.340;2023-03-01T09:02:37;10.40;1.00
8591;DHT22;4333;48.322;14.340;2023-03-01T09:05:04;10.10;1.00
8591;DHT22;4333;48.322;14.340;2023-03-01T09:07:30;10.60;1.00
8591;DHT22;4333;48.322;14.340;2023-03-01T09:09:55;10.10;1.00
8591;DHT22;4333;48.322;14.340;2023-03-01T09:12:22;10.80;1.00
8591;DHT22;4333;48.322;14.340;2023-03-01T09:14:47;11.10;1.00
8591;DHT22;4333;48.322;14.340;2023-03-01T09:17:13;11.30;1.00
8591;DHT22;4333;48.322;14.340;2023-03-01T09:19:39;10.70;1.00
8591;DHT22;4333;48.322;14.340;2023-03-01T09:22:05;10.00;1.00
8591;DHT22;4333;48.322;14.340;2023-03-01T09:24:30;9.60;1.00
8591;DHT22;4333;48.322;14.340;2023-03-01T09:26:57;9.30;1.00
8591;DHT22;4333;48.322;14.340;2023-03-01T09:29:25;9.00;1.00
8591;DHT22;4333;48.322;14.340;2023-03-01T09:31:51;8.80;1.00
8591;DHT22;4333;48.322;14.340;2023-03-01T09:34:20;8.60;1.00
8591;DHT22;4333;48.322;14.340;2023-03-01T09:36:49;9.10;1.00
8591;DHT22;4333;48.322;14.340;2023-03-01T09:39:15;9.50;1.00
8591;DHT22;4333;48.322;14.340;2023-03-01T09:47:03;9.40;1.00
8591;DHT22;4333;48.322;14.340;2023-03-01T09:49:31;9.90;1.00
8591;DHT22;4333;48.322;14.340;2023-03-01T09:52:09;10.10;1.00
8591;DHT22;4333;48.322;14.340;2023-03-01T09:54:37;10.20;1.00
8591;DHT22;4333;48.322;14.340;2023-03-01T09:57:26;10.50;1.00
8591;DHT22;4333;48.322;14.340;2023-03-01T10:02:49;9.50;1.00
8591;DHT22;4333;48.322;14.340;2023-03-01T10:05:38;9.90;1.00
8591;DHT22;4333;48.322;14.340;2023-03-01T10:10:46;8.80;1.00
8591;DHT22;4333;48.322;14.340;2023-03-01T10:13:32;8.90;1.00
8591;DHT22;4333;48.322;14.340;2023-03-01T10:16:23;8.70;1.00
8591;DHT22;4333;48.322;14.340;2023-03-01T10:18:59;8.40;1.00
8591;DHT22;4333;48.322;14.340;2023-03-01T10:21:27;8.80;1.00
8591;DHT22;4333;48.322;14.340;2023-03-01T10:24:01;8.60;1.00
8591;DHT22;4333;48.322;14.340;2023-03-01T10:26:54;8.50;1.00
8591;DHT22;4333;48.322;14.340;2023-03-01T10:29:24;8.20;1.00
8591;DHT22;4333;48.322;14.340;2023-03-01T10:31:52;8.40;1.00
8591;DHT22;4333;48.322;14.340;2023-03-01T10:36:51;9.30;1.00
8591;DHT22;4333;48.322;14.340;2023-03-01T10:39:20;8.80;1.00
8591;DHT22;4333;48.322;14.340;2023-03-01T10:44:44;9.20;1.00
8591;DHT22;4333;48.322;14.340;2023-03-01T10:47:22;9.00;1.00
8591;DHT22;4333;48.322;14.340;2023-03-01T10:49:53;9.00;1.00
8591;DHT22;4333;48.322;14.340;2023-03-01T10:52:21;9.00;1.00
8591;DHT22;4333;48.322;14.340;2023-03-01T11:03:21;9.10;1.00
8591;DHT22;4333;48.322;14.340;2023-03-01T11:06:00;9.10;1.00
8591;DHT22;4333;48.322;14.340;2023-03-01T11:08:34;9.30;1.00
8591;DHT22;4333;48.322;14.340;2023-03-01T11:11:06;9.40;1.00
8591;DHT22;4333;48.322;14.340;2023-03-01T11:13:31;9.10;1.00
8591;DHT22;4333;48.322;14.340;2023-03-01T11:16:12;9.10;1.00
8591;DHT22;4333;48.322;14.340;2023-03-01T11:18:38;9.20;1.00
8591;DHT22;4333;48.322;14.340;2023-03-01T11:21:05;9.10;1.00
8591;DHT22;4333;48.322;14.340;2023-03-01T11:23:34;9.20;1.00
8591;DHT22;4333;48.322;14.340;2023-03-01T11:26:07;9.20;1.00
8591;DHT22;4333;48.322;14.340;2023-03-01T11:28:37;9.50;1.00
8591;DHT22;4333;48.322;14.340;2023-03-01T11:31:09;9.80;1.00
8591;DHT22;4333;48.322;14.340;2023-03-01T11:33:50;9.50;1.00
8591;DHT22;4333;48.322;14.340;2023-03-01T11:39:23;9.80;1.00
8591;DHT22;4333;48.322;14.340;2023-03-01T11:42:00;10.10;1.00
8591;DHT22;4333;48.322;14.340;2023-03-01T11:44:31;10.40;1.00
8591;DHT22;4333;48.322;14.340;2023-03-01T11:47:24;10.20;1.00
8591;DHT22;4333;48.322;14.340;2023-03-01T11:52:40;9.80;1.00
8591;DHT22;4333;48.322;14.340;2023-03-01T11:55:44;9.80;1.00
8591;DHT22;4333;48.322;14.340;2023-03-01T12:09:18;9.80;1.00
8591;DHT22;4333;48.322;14.340;2023-03-01T12:30:30;10.00;1.00
8591;DHT22;4333;48.322;14.340;2023-03-01T12:41:19;10.20;1.00
8591;DHT22;4333;48.322;14.340;2023-03-01T12:49:34;10.20;1.00
8591;DHT22;4333;48.322;14.340;2023-03-01T12:52:19;10.40;1.00
8591;DHT22;4333;48.322;14.340;2023-03-01T12:54:50;10.50;1.00
8591;DHT22;4333;48.322;14.340;2023-03-01T12:57:33;10.50;1.00
8591;DHT22;4333;48.322;14.340;2023-03-01T13:06:19;10.70;1.00
8591;DHT22;4333;48.322;14.340;2023-03-01T13:11:51;12.10;1.00
8591;DHT22;4333;48.322;14.340;2023-03-01T13:16:55;12.00;1.00
8591;DHT22;4333;48.322;14.340;2023-03-01T13:19:23;12.60;1.00
8591;DHT22;4333;48.322;14.340;2023-03-01T13:21:53;11.70;1.00
8591;DHT22;4333;48.322;14.340;2023-03-01T13:32:22;10.10;1.00
8591;DHT22;4333;48.322;14.340;2023-03-01T13:34:53;10.70;1.00
8591;DHT22;4333;48.322;14.340;2023-03-01T13:37:22;10.90;1.00
8591;DHT22;4333;48.322;14.340;2023-03-01T13:39:48;11.20;1.00
8591;DHT22;4333;48.322;14.340;2023-03-01T13:42:44;10.90;1.00
8591;DHT22;4333;48.322;14.340;2023-03-01T13:48:01;10.50;1.00
8591;DHT22;4333;48.322;14.340;2023-03-01T13:50:33;10.40;1.00
8591;DHT22;4333;48.322;14.340;2023-03-01T13:53:04;10.60;1.00
8591;DHT22;4333;48.322;14.340;2023-03-01T13:55:46;10.90;1.00
8591;DHT22;4333;48.322;14.340;2023-03-01T13:58:19;10.90;1.00
8591;DHT22;4333;48.322;14.340;2023-03-01T14:00:46;10.90;1.00
8591;DHT22;4333;48.322;14.340;2023-03-01T14:03:17;11.00;1.00
8591;DHT22;4333;48.322;14.340;2023-03-01T14:08:25;11.10;1.00
8591;DHT22;4333;48.322;14.340;2023-03-01T14:10:59;10.80;1.00
8591;DHT22;4333;48.322;14.340;2023-03-01T14:18:47;10.90;1.00
8591;DHT22;4333;48.322;14.340;2023-03-01T14:21:17;10.80;1.00
8591;DHT22;4333;48.322;14.340;2023-03-01T14:23:43;10.80;1.00
8591;DHT22;4333;48.322;14.340;2023-03-01T14:26:09;11.00;1.00
8591;DHT22;4333;48.322;14.340;2023-03-01T14:28:38;10.90;1.00
8591;DHT22;4333;48.322;14.340;2023-03-01T14:31:38;11.00;1.00
8591;DHT22;4333;48.322;14.340;2023-03-01T14:34:05;10.70;1.00
8591;DHT22;4333;48.322;14.340;2023-03-01T14:36:33;10.90;1.00
8591;DHT22;4333;48.322;14.340;2023-03-01T14:39:17;11.10;1.00
8591;DHT22;4333;48.322;14.340;2023-03-01T14:41:43;11.20;1.00
8591;DHT22;4333;48.322;14.340;2023-03-01T14:44:16;11.40;1.00
8591;DHT22;4333;48.322;14.340;2023-03-01T14:46:44;11.20;1.00
8591;DHT22;4333;48.322;14.340;2023-03-01T14:49:21;11.30;1.00
8591;DHT22;4333;48.322;14.340;2023-03-01T14:52:04;11.30;1.00
8591;DHT22;4333;48.322;14.340;2023-03-01T14:54:46;11.40;1.00
8591;DHT22;4333;48.322;14.340;2023-03-01T14:57:21;11.40;1.00
8591;DHT22;4333;48.322;14.340;2023-03-01T14:59:48;11.10;1.00
8591;DHT22;4333;48.322;14.340;2023-03-01T15:02:18;11.10;1.00
8591;DHT22;4333;48.322;14.340;2023-03-01T15:04:56;11.10;1.00
8591;DHT22;4333;48.322;14.340;2023-03-01T15:07:26;10.90;1.00
8591;DHT22;4333;48.322;14.340;2023-03-01T15:09:54;11.00;1.00
8591;DHT22;4333;48.322;14.340;2023-03-01T15:14:58;10.90;1.00
8591;DHT22;4333;48.322;14.340;2023-03-01T15:17:35;10.70;1.00
8591;DHT22;4333;48.322;14.340;2023-03-01T15:20:05;10.50;1.00
8591;DHT22;4333;48.322;14.340;2023-03-01T15:22:32;10.40;1.00
8591;DHT22;4333;48.322;14.340;2023-03-01T15:24:58;10.60;1.00
8591;DHT22;4333;48.322;14.340;2023-03-01T15:27:25;10.60;1.00
8591;DHT22;4333;48.322;14.340;2023-03-01T15:29:57;10.60;1.00
8591;DHT22;4333;48.322;14.340;2023-03-01T15:32:31;10.50;1.00
8591;DHT22;4333;48.322;14.340;2023-03-01T15:34:58;10.50;1.00
8591;DHT22;4333;48.322;14.340;2023-03-01T15:37:45;10.50;1.00
8591;DHT22;4333;48.322;14.340;2023-03-01T15:43:42;10.40;1.00
8591;DHT22;4333;48.322;14.340;2023-03-01T15:48:52;10.50;1.00
8591;DHT22;4333;48.322;14.340;2023-03-01T15:51:23;10.20;1.00
8591;DHT22;4333;48.322;14.340;2023-03-01T15:53:52;10.10;1.00
8591;DHT22;4333;48.322;14.340;2023-03-01T15:56:19;9.90;1.00
8591;DHT22;4333;48.322;14.340;2023-03-01T15:58:47;9.80;1.00
8591;DHT22;4333;48.322;14.340;2023-03-01T16:01:14;9.80;1.00
8591;DHT22;4333;48.322;14.340;2023-03-01T16:03:43;9.80;1.00
8591;DHT22;4333;48.322;14.340;2023-03-01T16:06:10;9.50;1.00
8591;DHT22;4333;48.322;14.340;2023-03-01T16:08:37;9.30;1.00
8591;DHT22;4333;48.322;14.340;2023-03-01T16:11:05;9.10;1.00
8591;DHT22;4333;48.322;14.340;2023-03-01T16:13:34;9.10;1.00
8591;DHT22;4333;48.322;14.340;2023-03-01T16:16:00;9.00;1.00
8591;DHT22;4333;48.322;14.340;2023-03-01T16:18:26;9.10;1.00
8591;DHT22;4333;48.322;14.340;2023-03-01T16:20:51;8.90;1.00
8591;DHT22;4333;48.322;14.340;2023-03-01T16:23:19;8.70;1.00
8591;DHT22;4333;48.322;14.340;2023-03-01T16:25:47;8.70;1.00
8591;DHT22;4333;48.322;14.340;2023-03-01T16:28:13;8.60;1.00
8591;DHT22;4333;48.322;14.340;2023-03-01T16:30:46;8.50;1.00
8591;DHT22;4333;48.322;14.340;2023-03-01T16:33:16;8.40;1.00
8591;DHT22;4333;48.322;14.340;2023-03-01T16:35:41;8.20;1.00
8591;DHT22;4333;48.322;14.340;2023-03-01T16:38:08;8.00;1.00
8591;DHT22;4333;48.322;14.340;2023-03-01T16:40:34;7.80;1.00
8591;DHT22;4333;48.322;14.340;2023-03-01T16:43:02;7.70;1.00
8591;DHT22;4333;48.322;14.340;2023-03-01T16:45:34;7.60;1.00
8591;DHT22;4333;48.322;14.340;2023-03-01T16:48:05;7.50;1.00
8591;DHT22;4333;48.322;14.340;2023-03-01T16:50:31;7.40;1.00
8591;DHT22;4333;48.322;14.340;2023-03-01T16:52:56;7.20;1.00
8591;DHT22;4333;48.322;14.340;2023-03-01T16:55:22;7.10;1.00
8591;DHT22;4333;48.322;14.340;2023-03-01T16:57:48;7.00;1.00
8591;DHT22;4333;48.322;14.340;2023-03-01T17:00:15;6.90;1.00
8591;DHT22;4333;48.322;14.340;2023-03-01T17:02:41;6.90;1.00
8591;DHT22;4333;48.322;14.340;2023-03-01T17:05:08;6.90;1.00
8591;DHT22;4333;48.322;14.340;2023-03-01T17:07:35;6.80;1.00
8591;DHT22;4333;48.322;14.340;2023-03-01T17:10:03;6.60;1.00
8591;DHT22;4333;48.322;14.340;2023-03-01T17:12:29;6.50;1.00
8591;DHT22;4333;48.322;14.340;2023-03-01T17:14:55;6.50;1.00
8591;DHT22;4333;48.322;14.340;2023-03-01T17:17:21;6.50;1.30
8591;DHT22;4333;48.322;14.340;2023-03-01T17:19:48;6.40;2.10
8591;DHT22;4333;48.322;14.340;2023-03-01T17:22:14;6.40;2.80
8591;DHT22;4333;48.322;14.340;2023-03-01T17:24:40;6.30;2.90
8591;DHT22;4333;48.322;14.340;2023-03-01T17:27:07;6.20;4.10
8591;DHT22;4333;48.322;14.340;2023-03-01T17:29:33;6.20;4.50
8591;DHT22;4333;48.322;14.340;2023-03-01T17:31:59;6.10;5.60
8591;DHT22;4333;48.322;14.340;2023-03-01T17:34:25;6.00;5.00
8591;DHT22;4333;48.322;14.340;2023-03-01T17:36:51;5.90;5.70
8591;DHT22;4333;48.322;14.340;2023-03-01T17:39:20;5.90;6.80
8591;DHT22;4333;48.322;14.340;2023-03-01T17:41:51;5.80;7.90
8591;DHT22;4333;48.322;14.340;2023-03-01T17:44:17;5.70;8.40
8591;DHT22;4333;48.322;14.340;2023-03-01T17:46:42;5.60;9.20
8591;DHT22;4333;48.322;14.340;2023-03-01T17:49:08;5.50;10.30
8591;DHT22;4333;48.322;14.340;2023-03-01T17:51:36;5.40;10.70
8591;DHT22;4333;48.322;14.340;2023-03-01T17:54:02;5.30;11.00
8591;DHT22;4333;48.322;14.340;2023-03-01T17:56:28;5.30;11.80
8591;DHT22;4333;48.322;14.340;2023-03-01T17:58:54;5.30;12.50
8591;DHT22;4333;48.322;14.340;2023-03-01T18:01:20;5.20;12.60
8591;DHT22;4333;48.322;14.340;2023-03-01T18:03:50;5.20;13.00
8591;DHT22;4333;48.322;14.340;2023-03-01T18:06:24;5.10;13.90
8591;DHT22;4333;48.322;14.340;2023-03-01T18:08:50;5.10;14.80
8591;DHT22;4333;48.322;14.340;2023-03-01T18:11:21;5.00;15.10
8591;DHT22;4333;48.322;14.340;2023-03-01T18:13:47;5.00;15.50
8591;DHT22;4333;48.322;14.340;2023-03-01T18:16:15;4.80;17.40
8591;DHT22;4333;48.322;14.340;2023-03-01T18:18:42;4.60;19.80
8591;DHT22;4333;48.322;14.340;2023-03-01T18:21:10;4.50;21.80